createdAt,value
2024-02-26T00:00:31.498Z,95136.97
2024-02-26T00:02:58.149Z,95119.09
2024-02-26T00:05:25.134Z,95124.38
2024-02-26T00:07:51.935Z,95108.44
2024-02-26T00:10:18.463Z,95106.97
2024-02-26T00:12:45.396Z,95089.75
2024-02-26T00:15:12.216Z,95094.44
2024-02-26T00:17:39.073Z,95096.66
2024-02-26T00:20:09.991Z,95108.97
2024-02-26T00:22:37.692Z,95103.78
2024-02-26T00:25:05.434Z,95100.06
2024-02-26T00:27:32.064Z,95105.28
2024-02-26T00:29:58.777Z,95109.56
2024-02-26T00:32:25.498Z,95110.53
2024-02-26T00:34:52.258Z,95101.28
2024-02-26T00:37:18.922Z,95105.84
2024-02-26T00:39:47.701Z,95102.63
2024-02-26T00:42:14.559Z,95107.91
2024-02-26T00:44:41.168Z,95098.81
2024-02-26T00:47:08.045Z,95098.09
2024-02-26T00:49:34.638Z,95096.28
2024-02-26T00:52:01.244Z,95095.44
2024-02-26T00:54:27.932Z,95094.91
2024-02-26T00:56:54.640Z,95087.50
2024-02-26T00:59:21.232Z,95095.13
2024-02-26T01:01:47.840Z,95089.19
2024-02-26T01:04:14.855Z,95072.88
2024-02-26T01:06:41.627Z,95075.69
2024-02-26T01:09:09.525Z,95073.66
2024-02-26T01:11:36.272Z,95062.75
2024-02-26T01:14:02.964Z,95062.19
2024-02-26T01:16:30.344Z,95081.75
2024-02-26T01:18:57.086Z,95075.00
2024-02-26T01:21:23.784Z,95067.47
2024-02-26T01:23:50.535Z,95061.84
2024-02-26T01:26:17.431Z,95052.72
2024-02-26T01:28:44.102Z,95062.56
2024-02-26T01:31:11.217Z,95065.72
2024-02-26T01:33:38.064Z,95072.88
2024-02-26T01:36:04.848Z,95073.00
2024-02-26T01:38:31.646Z,95076.66
2024-02-26T01:40:58.294Z,95103.41
2024-02-26T01:43:25.071Z,95101.84
2024-02-26T01:45:51.720Z,95105.78
2024-02-26T01:48:18.771Z,95101.88
2024-02-26T01:50:45.757Z,95104.63
2024-02-26T01:53:13.375Z,95097.75
2024-02-26T01:55:40.588Z,95099.59
2024-02-26T01:58:08.112Z,95104.06
2024-02-26T02:00:35.173Z,95093.53
2024-02-26T02:03:04.288Z,95100.44
2024-02-26T02:05:31.898Z,95097.09
2024-02-26T02:07:59.391Z,95104.25
2024-02-26T02:10:28.040Z,95102.19
2024-02-26T02:12:54.753Z,95105.72
2024-02-26T02:15:21.870Z,95101.22
2024-02-26T02:17:49.070Z,95103.25
2024-02-26T02:20:20.128Z,95109.97
2024-02-26T02:22:47.398Z,95109.97
2024-02-26T02:25:14.524Z,95117.16
2024-02-26T02:27:42.229Z,95119.63
2024-02-26T02:30:10.399Z,95111.09
2024-02-26T02:32:40.735Z,95112.97
2024-02-26T02:35:08.061Z,95123.84
2024-02-26T02:37:35.188Z,95121.03
2024-02-26T02:40:02.167Z,95127.38
2024-02-26T02:42:28.866Z,95124.28
2024-02-26T02:44:55.597Z,95120.88
2024-02-26T02:47:22.306Z,95125.16
2024-02-26T02:49:48.988Z,95129.78
2024-02-26T02:52:15.858Z,95117.47
2024-02-26T02:54:43.453Z,95123.22
2024-02-26T02:57:10.585Z,95115.72
2024-02-26T02:59:38.572Z,95110.69
2024-02-26T03:02:06.232Z,95122.09
2024-02-26T03:04:33.250Z,95112.97
2024-02-26T03:07:01.533Z,95111.78
2024-02-26T03:09:28.545Z,95109.66
2024-02-26T03:11:55.330Z,95119.53
2024-02-26T03:14:21.962Z,95119.19
2024-02-26T03:16:48.668Z,95118.44
2024-02-26T03:19:16.851Z,95120.63
2024-02-26T03:21:43.602Z,95110.38
2024-02-26T03:24:11.625Z,95109.81
2024-02-26T03:26:38.556Z,95102.69
2024-02-26T03:29:05.957Z,95099.50
2024-02-26T03:31:32.943Z,95102.81
2024-02-26T03:33:59.909Z,95110.53
2024-02-26T03:36:26.931Z,95097.22
2024-02-26T03:38:53.654Z,95107.56
2024-02-26T03:41:20.330Z,95103.75
2024-02-26T03:43:46.968Z,95101.41
2024-02-26T03:46:14.808Z,95108.72
2024-02-26T03:48:42.773Z,95102.09
2024-02-26T03:51:11.547Z,95102.31
2024-02-26T03:53:38.244Z,95102.19
2024-02-26T03:56:06.079Z,95103.03
2024-02-26T03:58:33.093Z,95109.56
2024-02-26T04:01:01.029Z,95101.72
2024-02-26T04:03:27.768Z,95106.25
2024-02-26T04:05:54.486Z,95111.47
2024-02-26T04:08:21.489Z,95115.41
2024-02-26T04:10:48.206Z,95111.81
2024-02-26T04:13:14.899Z,95102.56
2024-02-26T04:15:41.519Z,95104.13
2024-02-26T04:18:09.163Z,95097.72
2024-02-26T04:20:35.916Z,95114.44
2024-02-26T04:23:03.168Z,95113.59
2024-02-26T04:25:29.909Z,95110.16
2024-02-26T04:27:56.683Z,95107.44
2024-02-26T04:30:23.515Z,95110.88
2024-02-26T04:32:50.235Z,95111.81
2024-02-26T04:35:16.977Z,95114.09
2024-02-26T04:37:43.641Z,95101.75
2024-02-26T04:40:10.705Z,95105.06
2024-02-26T04:42:37.420Z,95106.47
2024-02-26T04:45:04.367Z,95107.44
2024-02-26T04:47:31.478Z,95104.47
2024-02-26T04:49:58.295Z,95106.13
2024-02-26T04:52:24.990Z,95108.59
2024-02-26T04:54:51.655Z,95113.59
2024-02-26T04:57:19.726Z,95116.56
2024-02-26T04:59:47.259Z,95112.19
2024-02-26T05:02:15.075Z,95121.81
2024-02-26T05:04:41.903Z,95118.63
2024-02-26T05:07:08.773Z,95121.59
2024-02-26T05:09:35.770Z,95118.88
2024-02-26T05:12:03.162Z,95118.97
2024-02-26T05:14:29.945Z,95114.00
2024-02-26T05:16:57.258Z,95114.34
2024-02-26T05:19:24.143Z,95119.22
2024-02-26T05:21:51.578Z,95116.34
2024-02-26T05:24:19.127Z,95111.03
2024-02-26T05:26:46.557Z,95113.88
2024-02-26T05:29:13.413Z,95121.59
2024-02-26T05:31:40.121Z,95119.69
2024-02-26T05:34:06.875Z,95120.63
2024-02-26T05:36:34.836Z,95125.03
2024-02-26T05:39:02.593Z,95122.53
2024-02-26T05:41:29.296Z,95124.09
2024-02-26T05:43:56.156Z,95124.69
2024-02-26T05:46:23.534Z,95116.03
2024-02-26T05:48:53.987Z,95122.53
2024-02-26T05:51:20.984Z,95128.59
2024-02-26T05:53:55.588Z,95131.09
2024-02-26T05:56:23.570Z,95128.59
2024-02-26T05:58:50.588Z,95130.63
2024-02-26T06:01:18.488Z,95130.16
2024-02-26T06:03:46.014Z,95140.47
2024-02-26T06:06:13.025Z,95139.91
2024-02-26T06:08:39.728Z,95144.88
2024-02-26T06:11:08.226Z,95138.59
2024-02-26T06:13:35.621Z,95143.81
2024-02-26T06:16:02.428Z,95146.31
2024-02-26T06:18:29.420Z,95156.75
2024-02-26T06:20:56.340Z,95147.97
2024-02-26T06:23:22.945Z,95165.28
2024-02-26T06:25:49.611Z,95172.19
2024-02-26T06:28:16.242Z,95179.44
2024-02-26T06:30:42.925Z,95181.47
2024-02-26T06:33:09.792Z,95177.88
2024-02-26T06:35:36.399Z,95187.72
2024-02-26T06:38:03.316Z,95192.75
2024-02-26T06:40:29.873Z,95192.03
2024-02-26T06:42:57.094Z,95200.56
2024-02-26T06:45:23.851Z,95196.88
2024-02-26T06:47:50.693Z,95202.59
2024-02-26T06:50:17.504Z,95203.66
2024-02-26T06:52:45.609Z,95203.06
2024-02-26T06:55:12.608Z,95211.25
2024-02-26T06:57:39.317Z,95205.66
2024-02-26T07:00:07.651Z,95217.19
2024-02-26T07:02:35.221Z,95227.66
2024-02-26T07:05:04.582Z,95222.28
2024-02-26T07:07:31.201Z,95225.16
2024-02-26T07:09:57.927Z,95236.19
2024-02-26T07:12:24.704Z,95233.31
2024-02-26T07:14:51.712Z,95232.72
2024-02-26T07:17:18.398Z,95232.41
2024-02-26T07:19:45.099Z,95227.50
2024-02-26T07:22:11.932Z,95231.66
2024-02-26T07:24:38.566Z,95230.84
2024-02-26T07:27:05.462Z,95233.34
2024-02-26T07:29:32.313Z,95242.34
2024-02-26T07:31:59.132Z,95235.00
2024-02-26T07:34:30.265Z,95234.16
2024-02-26T07:36:57.580Z,95235.44
2024-02-26T07:39:24.451Z,95241.84
2024-02-26T07:41:53.172Z,95240.81
2024-02-26T07:44:21.118Z,95239.25
2024-02-26T07:46:48.018Z,95240.44
2024-02-26T07:49:15.021Z,95254.47
2024-02-26T07:51:42.065Z,95250.88
2024-02-26T07:54:08.734Z,95261.09
2024-02-26T07:56:35.512Z,95258.47
2024-02-26T07:59:02.118Z,95267.06
2024-02-26T08:01:28.862Z,95268.72
2024-02-26T08:03:55.687Z,95267.41
2024-02-26T08:06:23.082Z,95271.56
2024-02-26T08:08:49.799Z,95273.13
2024-02-26T08:11:19.611Z,95278.56
2024-02-26T08:13:46.393Z,95278.91
2024-02-26T08:16:13.330Z,95288.31
2024-02-26T08:18:40.344Z,95285.69
2024-02-26T08:21:07.236Z,95294.72
2024-02-26T08:23:33.890Z,95290.91
2024-02-26T08:26:00.808Z,95293.06
2024-02-26T08:28:27.657Z,95298.63
2024-02-26T08:30:54.591Z,95307.09
2024-02-26T08:33:21.299Z,95304.47
2024-02-26T08:35:48.126Z,95302.56
2024-02-26T08:38:14.816Z,95314.69
2024-02-26T08:40:42.729Z,95305.91
2024-02-26T08:43:10.935Z,95309.59
2024-02-26T08:45:38.370Z,95307.44
2024-02-26T08:48:05.376Z,95306.88
2024-02-26T08:50:32.351Z,95310.63
2024-02-26T08:52:59.046Z,95308.31
2024-02-26T08:55:25.700Z,95310.50
2024-02-26T08:57:52.383Z,95315.09
2024-02-26T09:00:21.559Z,95311.19
2024-02-26T09:02:48.968Z,95319.97
2024-02-26T09:05:15.804Z,95312.03
2024-02-26T09:07:42.423Z,95311.28
2024-02-26T09:10:12.244Z,95313.50
2024-02-26T09:12:40.862Z,95317.63
2024-02-26T09:15:09.426Z,95314.63
2024-02-26T09:17:36.148Z,95303.59
2024-02-26T09:20:04.090Z,95314.47
2024-02-26T09:22:30.897Z,95310.31
2024-02-26T09:24:57.527Z,95314.66
2024-02-26T09:27:24.925Z,95313.16
2024-02-26T09:29:51.942Z,95316.66
2024-02-26T09:32:19.017Z,95338.34
2024-02-26T09:34:45.846Z,95344.81
2024-02-26T09:37:18.675Z,95327.94
2024-02-26T09:39:49.022Z,95319.66
2024-02-26T09:42:19.492Z,95321.22
2024-02-26T09:44:46.957Z,95335.91
2024-02-26T09:47:16.871Z,95323.06
2024-02-26T09:49:44.293Z,95316.22
2024-02-26T09:52:11.223Z,95331.16
2024-02-26T09:54:37.859Z,95331.78
2024-02-26T09:57:10.700Z,95334.66
2024-02-26T09:59:43.878Z,95337.53
2024-02-26T10:02:14.205Z,95339.81
2024-02-26T10:04:42.132Z,95343.50
2024-02-26T10:07:12.920Z,95339.69
2024-02-26T10:09:40.287Z,95351.28
2024-02-26T10:12:09.887Z,95366.25
2024-02-26T10:14:37.632Z,95366.44
2024-02-26T10:17:08.094Z,95365.19
2024-02-26T10:19:37.403Z,95371.75
2024-02-26T10:22:05.781Z,95362.78
2024-02-26T10:24:32.770Z,95363.94
2024-02-26T10:26:59.614Z,95372.69
2024-02-26T10:29:26.890Z,95372.06
2024-02-26T10:31:53.647Z,95386.09
2024-02-26T10:34:21.213Z,95383.75
2024-02-26T10:36:53.132Z,95395.53
2024-02-26T10:39:21.614Z,95389.00
2024-02-26T10:41:48.453Z,95391.50
2024-02-26T10:44:17.805Z,95391.69
2024-02-26T10:46:48.172Z,95409.16
2024-02-26T10:49:19.317Z,95387.44
2024-02-26T10:51:50.163Z,95396.53
2024-02-26T10:54:17.628Z,95397.91
2024-02-26T10:56:44.845Z,95401.66
2024-02-26T10:59:12.088Z,95405.81
2024-02-26T11:01:41.608Z,95407.78
2024-02-26T11:04:10.638Z,95412.84
2024-02-26T11:06:37.629Z,95417.28
2024-02-26T11:09:04.524Z,95429.63
2024-02-26T11:11:35.599Z,95426.03
2024-02-26T11:14:04.366Z,95431.34
2024-02-26T11:16:31.448Z,95431.22
2024-02-26T11:18:59.132Z,95425.34
2024-02-26T11:21:39.650Z,95428.47
2024-02-26T11:24:19.712Z,95437.75
2024-02-26T11:27:00.207Z,95438.50
2024-02-26T11:29:35.766Z,95438.84
2024-02-26T11:32:02.985Z,95433.72
2024-02-26T11:34:29.972Z,95429.03
2024-02-26T11:36:57.102Z,95418.91
2024-02-26T11:39:24.473Z,95430.25
2024-02-26T11:41:51.581Z,95430.50
2024-02-26T11:44:30.482Z,95433.16
2024-02-26T11:46:57.866Z,95436.75
2024-02-26T11:49:32.516Z,95432.19
2024-02-26T11:52:04.877Z,95432.81
2024-02-26T11:55:10.367Z,95447.47
2024-02-26T11:57:41.255Z,95450.34
2024-02-26T12:00:07.988Z,95455.34
2024-02-26T12:02:41.411Z,95457.56
2024-02-26T12:05:10.766Z,95461.78
2024-02-26T12:07:37.716Z,95465.75
2024-02-26T12:10:26.140Z,95471.78
2024-02-26T12:12:59.150Z,95461.56
2024-02-26T12:15:31.103Z,95469.78
2024-02-26T12:17:58.161Z,95466.38
2024-02-26T12:20:25.240Z,95474.09
2024-02-26T12:22:53.853Z,95479.59
2024-02-26T12:25:23.612Z,95483.69
2024-02-26T12:27:50.244Z,95480.03
2024-02-26T12:30:17.205Z,95489.13
2024-02-26T12:32:44.036Z,95489.16
2024-02-26T12:35:10.844Z,95481.47
2024-02-26T12:37:40.191Z,95487.00
2024-02-26T12:40:10.006Z,95490.22
2024-02-26T12:42:40.537Z,95491.03
2024-02-26T12:45:10.733Z,95499.88
2024-02-26T12:47:39.469Z,95497.28
2024-02-26T12:50:09.608Z,95487.94
2024-02-26T12:52:41.279Z,95489.91
2024-02-26T12:55:09.864Z,95483.34
2024-02-26T12:57:40.262Z,95483.47
2024-02-26T13:00:12.177Z,95489.00
2024-02-26T13:02:40.202Z,95489.34
2024-02-26T13:05:09.084Z,95500.38
2024-02-26T13:07:42.063Z,95496.88
2024-02-26T13:10:09.178Z,95492.09
2024-02-26T13:12:35.945Z,95496.69
2024-02-26T13:15:03.926Z,95499.91
2024-02-26T13:17:34.063Z,95505.44
2024-02-26T13:20:01.054Z,95516.50
2024-02-26T13:22:27.845Z,95517.94
2024-02-26T13:24:56.909Z,95523.31
2024-02-26T13:27:24.396Z,95522.22
2024-02-26T13:30:11.367Z,95526.34
2024-02-26T13:32:40.363Z,95523.38
2024-02-26T13:35:11.054Z,95530.47
2024-02-26T13:37:38.501Z,95533.88
2024-02-26T13:40:12.315Z,95532.88
2024-02-26T13:42:39.690Z,95534.84
2024-02-26T13:45:12.629Z,95534.28
2024-02-26T13:47:39.426Z,95538.41
2024-02-26T13:50:06.860Z,95538.31
2024-02-26T13:52:34.054Z,95554.41
2024-02-26T13:55:00.899Z,95548.31
2024-02-26T13:57:27.919Z,95566.00
2024-02-26T13:59:54.662Z,95559.81
2024-02-26T14:02:21.672Z,95555.28
2024-02-26T14:04:48.437Z,95563.34
2024-02-26T14:07:15.148Z,95564.06
2024-02-26T14:09:49.065Z,95570.81
2024-02-26T14:12:17.575Z,95574.53
2024-02-26T14:14:46.648Z,95571.84
2024-02-26T14:17:13.984Z,95575.22
2024-02-26T14:19:44.133Z,95576.78
2024-02-26T14:22:14.516Z,95583.75
2024-02-26T14:24:41.343Z,95583.13
2024-02-26T14:27:16.858Z,95584.47
2024-02-26T14:29:44.445Z,95587.59
2024-02-26T14:32:11.346Z,95597.97
2024-02-26T14:34:38.447Z,95597.91
2024-02-26T14:37:05.643Z,95607.16
2024-02-26T14:39:33.595Z,95608.59
2024-02-26T14:42:01.451Z,95610.19
2024-02-26T14:44:28.203Z,95615.25
2024-02-26T14:46:54.871Z,95607.50
2024-02-26T14:49:21.571Z,95606.59
2024-02-26T14:51:48.593Z,95611.50
2024-02-26T14:54:15.702Z,95613.09
2024-02-26T14:56:42.373Z,95623.63
2024-02-26T14:59:09.039Z,95621.50
2024-02-26T15:01:35.772Z,95624.78
2024-02-26T15:04:02.774Z,95622.91
2024-02-26T15:06:30.051Z,95623.09
2024-02-26T15:08:56.957Z,95617.03
2024-02-26T15:11:23.576Z,95624.69
2024-02-26T15:13:50.291Z,95629.28
2024-02-26T15:16:21.669Z,95633.91
2024-02-26T15:18:48.850Z,95634.88
2024-02-26T15:21:16.045Z,95642.53
2024-02-26T15:23:59.118Z,95646.03
2024-02-26T15:26:31.781Z,95653.22
2024-02-26T15:28:58.395Z,95652.22
2024-02-26T15:31:25.089Z,95661.25
2024-02-26T15:33:52.146Z,95660.50
2024-02-26T15:36:19.013Z,95667.66
2024-02-26T15:38:45.666Z,95657.03
2024-02-26T15:41:13.768Z,95668.94
2024-02-26T15:43:40.859Z,95677.06
2024-02-26T15:46:07.632Z,95677.16
2024-02-26T15:48:34.474Z,95688.03
2024-02-26T15:51:01.251Z,95691.50
2024-02-26T15:53:27.999Z,95690.28
2024-02-26T15:55:54.621Z,95683.72
2024-02-26T15:58:21.582Z,95694.41
2024-02-26T16:00:48.545Z,95702.00
2024-02-26T16:03:15.221Z,95702.19
2024-02-26T16:05:42.025Z,95707.47
2024-02-26T16:08:26.940Z,95705.31
2024-02-26T16:10:53.635Z,95717.97
2024-02-26T16:13:21.389Z,95710.34
2024-02-26T16:16:06.685Z,95713.78
2024-02-26T16:18:36.193Z,95725.72
2024-02-26T16:21:03.288Z,95733.09
2024-02-26T16:23:30.025Z,95734.28
2024-02-26T16:25:56.997Z,95731.41
2024-02-26T16:28:26.506Z,95730.38
2024-02-26T16:30:55.202Z,95732.50
2024-02-26T16:33:22.757Z,95743.44
2024-02-26T16:35:49.654Z,95741.91
2024-02-26T16:38:16.283Z,95748.72
2024-02-26T16:40:43.198Z,95745.00
2024-02-26T16:43:10.036Z,95751.81
2024-02-26T16:45:36.708Z,95753.25
2024-02-26T16:48:04.513Z,95761.72
2024-02-26T16:50:31.314Z,95764.44
2024-02-26T16:52:58.497Z,95773.13
2024-02-26T16:55:28.214Z,95776.97
2024-02-26T16:57:56.496Z,95785.19
2024-02-26T17:00:23.634Z,95779.81
2024-02-26T17:02:50.890Z,95789.72
2024-02-26T17:05:18.030Z,95795.66
2024-02-26T17:07:46.774Z,95805.19
2024-02-26T17:10:14.373Z,95814.84
2024-02-26T17:12:41.362Z,95816.78
2024-02-26T17:15:09.277Z,95821.09
2024-02-26T17:17:36.586Z,95821.91
2024-02-26T17:20:05.468Z,95825.13
2024-02-26T17:22:32.397Z,95827.88
2024-02-26T17:24:59.482Z,95825.63
2024-02-26T17:27:26.265Z,95838.84
2024-02-26T17:29:52.861Z,95830.88
2024-02-26T17:32:19.495Z,95839.22
2024-02-26T17:34:48.371Z,95845.25
2024-02-26T17:37:15.768Z,95848.44
2024-02-26T17:39:42.688Z,95853.69
2024-02-26T17:42:09.355Z,95865.06
2024-02-26T17:44:40.004Z,95872.47
2024-02-26T17:47:07.329Z,95876.84
2024-02-26T17:49:34.423Z,95878.31
2024-02-26T17:52:01.921Z,95877.47
2024-02-26T17:54:30.017Z,95883.09
2024-02-26T17:56:58.321Z,95881.78
2024-02-26T17:59:25.360Z,95890.00
2024-02-26T18:01:52.051Z,95892.03
2024-02-26T18:04:18.822Z,95901.13
2024-02-26T18:06:46.287Z,95900.47
2024-02-26T18:09:15.193Z,95903.47
2024-02-26T18:11:45.626Z,95903.63
2024-02-26T18:14:12.584Z,95910.19
2024-02-26T18:16:39.298Z,95915.31
2024-02-26T18:19:06.038Z,95913.44
2024-02-26T18:21:32.899Z,95915.31
2024-02-26T18:23:59.635Z,95913.81
2024-02-26T18:26:26.405Z,95922.69
2024-02-26T18:28:53.183Z,95921.22
2024-02-26T18:31:20.361Z,95920.53
2024-02-26T18:33:47.286Z,95927.88
2024-02-26T18:36:16.208Z,95930.75
2024-02-26T18:38:42.943Z,95930.41
2024-02-26T18:41:19.180Z,95940.19
2024-02-26T18:43:46.004Z,95949.84
2024-02-26T18:46:12.579Z,95955.59
2024-02-26T18:48:39.480Z,95960.31
2024-02-26T18:51:06.455Z,95973.66
2024-02-26T18:53:33.093Z,95979.22
2024-02-26T18:55:59.728Z,95979.84
2024-02-26T18:58:26.320Z,95985.41
2024-02-26T19:00:53.234Z,95988.19
2024-02-26T19:03:19.975Z,95990.25
2024-02-26T19:05:46.601Z,96006.44
2024-02-26T19:08:13.382Z,96012.00
2024-02-26T19:10:39.977Z,96004.78
2024-02-26T19:13:09.657Z,96021.25
2024-02-26T19:15:36.795Z,96015.41
2024-02-26T19:18:03.943Z,96021.91
2024-02-26T19:20:30.755Z,96030.94
2024-02-26T19:22:57.478Z,96029.63
2024-02-26T19:25:24.250Z,96038.31
2024-02-26T19:27:50.988Z,96039.88
2024-02-26T19:30:17.721Z,96043.03
2024-02-26T19:32:44.532Z,96043.69
2024-02-26T19:35:11.484Z,96050.44
2024-02-26T19:37:38.383Z,96043.31
2024-02-26T19:40:05.597Z,96048.78
2024-02-26T19:42:32.619Z,96057.25
2024-02-26T19:44:59.434Z,96060.88
2024-02-26T19:47:26.236Z,96058.69
2024-02-26T19:49:53.019Z,96063.63
2024-02-26T19:52:21.679Z,96060.25
2024-02-26T19:54:48.386Z,96068.22
2024-02-26T19:57:15.115Z,96072.94
2024-02-26T19:59:41.880Z,96068.22
2024-02-26T20:02:10.530Z,96071.97
2024-02-26T20:04:37.456Z,96073.03
2024-02-26T20:07:05.924Z,96078.28
2024-02-26T20:09:34.063Z,96082.25
2024-02-26T20:12:03.052Z,96090.13
2024-02-26T20:14:30.520Z,96103.22
2024-02-26T20:16:59.650Z,96103.00
2024-02-26T20:19:26.432Z,96105.09
2024-02-26T20:21:54.278Z,96113.16
2024-02-26T20:24:21.131Z,96120.72
2024-02-26T20:26:50.508Z,96119.16
2024-02-26T20:29:17.631Z,96123.47
2024-02-26T20:31:44.552Z,96119.06
2024-02-26T20:34:12.984Z,96128.59
2024-02-26T20:36:40.575Z,96124.19
2024-02-26T20:39:07.374Z,96132.16
2024-02-26T20:41:34.026Z,96134.03
2024-02-26T20:44:01.060Z,96134.56
2024-02-26T20:46:27.697Z,96143.13
2024-02-26T20:48:54.431Z,96139.91
2024-02-26T20:51:21.142Z,96146.41
2024-02-26T20:53:48.546Z,96150.38
2024-02-26T20:56:15.253Z,96156.97
2024-02-26T20:58:41.924Z,96162.97
2024-02-26T21:01:09.443Z,96168.31
2024-02-26T21:03:37.083Z,96167.34
2024-02-26T21:06:04.976Z,96170.28
2024-02-26T21:08:37.651Z,96168.63
2024-02-26T21:11:06.955Z,96173.44
2024-02-26T21:13:34.340Z,96183.78
2024-02-26T21:16:01.356Z,96182.13
2024-02-26T21:18:28.321Z,96178.88
2024-02-26T21:20:56.168Z,96191.66
2024-02-26T21:23:22.956Z,96195.00
2024-02-26T21:25:49.598Z,96189.34
2024-02-26T21:28:16.389Z,96198.16
2024-02-26T21:30:44.720Z,96205.69
2024-02-26T21:33:11.811Z,96209.38
2024-02-26T21:35:38.800Z,96214.09
2024-02-26T21:38:08.322Z,96217.34
2024-02-26T21:40:36.972Z,96216.28
2024-02-26T21:43:04.408Z,96222.69
2024-02-26T21:45:31.752Z,96224.03
2024-02-26T21:47:58.670Z,96222.91
2024-02-26T21:50:25.494Z,96227.69
2024-02-26T21:52:52.165Z,96231.78
2024-02-26T21:55:20.460Z,96227.16
2024-02-26T21:57:47.270Z,96234.06
2024-02-26T22:00:14.287Z,96246.66
2024-02-26T22:02:41.321Z,96247.59
2024-02-26T22:05:08.144Z,96249.06
2024-02-26T22:07:34.830Z,96247.59
2024-02-26T22:10:01.503Z,96247.88
2024-02-26T22:12:28.306Z,96256.03
2024-02-26T22:14:54.993Z,96261.91
2024-02-26T22:17:21.977Z,96263.47
2024-02-26T22:19:48.935Z,96270.41
2024-02-26T22:22:15.596Z,96270.31
2024-02-26T22:24:42.225Z,96272.34
2024-02-26T22:27:09.038Z,96272.59
2024-02-26T22:29:36.011Z,96283.66
2024-02-26T22:32:02.686Z,96281.47
2024-02-26T22:34:30.451Z,96285.03
2024-02-26T22:36:57.410Z,96284.91
2024-02-26T22:39:24.102Z,96297.34
2024-02-26T22:41:50.913Z,96295.16
2024-02-26T22:44:17.717Z,96296.09
2024-02-26T22:46:44.388Z,96300.69
2024-02-26T22:49:11.224Z,96305.47
2024-02-26T22:51:38.360Z,96307.16
2024-02-26T22:54:05.202Z,96303.81
2024-02-26T22:56:31.980Z,96308.56
2024-02-26T22:58:58.646Z,96313.19
2024-02-26T23:01:25.799Z,96318.66
2024-02-26T23:03:53.680Z,96325.19
2024-02-26T23:06:20.426Z,96325.28
2024-02-26T23:08:48.962Z,96330.44
2024-02-26T23:11:15.653Z,96338.28
2024-02-26T23:13:43.090Z,96333.56
2024-02-26T23:16:10.055Z,96334.59
2024-02-26T23:18:37.032Z,96340.22
2024-02-26T23:21:04.303Z,96341.78
2024-02-26T23:23:31.161Z,96336.75
2024-02-26T23:25:57.955Z,96347.25
2024-02-26T23:28:24.672Z,96343.44
2024-02-26T23:30:52.090Z,96341.69
2024-02-26T23:33:18.976Z,96341.63
2024-02-26T23:35:45.705Z,96335.25
2024-02-26T23:38:12.390Z,96338.88
2024-02-26T23:40:39.130Z,96342.88
2024-02-26T23:43:05.913Z,96337.69
2024-02-26T23:45:32.570Z,96342.00
2024-02-26T23:47:59.521Z,96345.34
2024-02-26T23:50:28.885Z,96337.22
2024-02-26T23:52:55.930Z,96340.50
2024-02-26T23:55:22.500Z,96344.63
2024-02-26T23:57:49.202Z,96356.78
